Terminal Aerodrome Forecast
Issued by NWS

Home | Current Version | Previous Version | Text Only | Print | Product List | Glossary On
Versions: 1 2 3 4 5 6 7 8 9 10 11 12
481
FTUS46 KEKA 112320
TAFCEC
TAF
KCEC 112320Z 1200/1224 18008KT P6SM BKN250
     FM120700 15009KT P6SM SCT025 BKN060
     FM121500 17008KT 5SM -RA BR OVC025
     FM121800 20006KT 2SM -SHRA BR OVC015
     FM122100 28005KT 5SM BR BKN005 OVC015=

USA.gov is the U.S. government's official web portal to all federal, state and local government web resources and services.